createdAt,value
2022-12-26T00:00:47.064Z,8.34
2022-12-26T00:03:13.909Z,8.40
2022-12-26T00:05:40.602Z,8.40
2022-12-26T00:08:08.086Z,7.67
2022-12-26T00:10:34.756Z,8.62
2022-12-26T00:13:37.320Z,8.75
2022-12-26T00:15:48.196Z,8.81
2022-12-26T00:18:14.962Z,9.11
2022-12-26T00:20:41.669Z,8.58
2022-12-26T00:23:09.167Z,8.79
2022-12-26T00:25:36.024Z,8.82
2022-12-26T00:28:02.738Z,9.06
2022-12-26T00:30:29.627Z,9.11
2022-12-26T00:32:56.365Z,8.96
2022-12-26T00:35:23.250Z,8.24
2022-12-26T00:37:49.944Z,8.69
2022-12-26T00:40:18.910Z,9.01
2022-12-26T00:42:45.543Z,9.02
2022-12-26T00:45:12.247Z,8.85
2022-12-26T00:47:39.035Z,9.09
2022-12-26T00:50:12.759Z,9.31
2022-12-26T00:52:42.663Z,9.36
2022-12-26T00:55:10.514Z,9.46
2022-12-26T00:57:37.310Z,8.95
2022-12-26T01:00:05.445Z,8.88
2022-12-26T01:02:40.755Z,8.59
2022-12-26T01:05:11.148Z,8.70
2022-12-26T01:08:19.689Z,8.11
2022-12-26T01:10:28.451Z,8.27
2022-12-26T01:12:55.209Z,8.79
2022-12-26T01:15:21.961Z,7.93
2022-12-26T01:17:48.651Z,7.75
2022-12-26T01:20:16.595Z,8.43
2022-12-26T01:22:43.227Z,8.53
2022-12-26T01:25:12.099Z,8.73
2022-12-26T01:27:38.882Z,8.45
2022-12-26T01:30:07.025Z,8.29
2022-12-26T01:32:33.804Z,8.33
2022-12-26T01:35:00.580Z,8.32
2022-12-26T01:37:27.407Z,8.39
2022-12-26T01:39:54.592Z,8.03
2022-12-26T01:42:24.747Z,8.15
2022-12-26T01:45:27.159Z,9.32
2022-12-26T01:48:12.224Z,9.54
2022-12-26T01:50:51.169Z,9.31
2022-12-26T01:53:24.226Z,8.94
2022-12-26T01:56:01.298Z,8.75
2022-12-26T01:58:33.912Z,8.78
2022-12-26T02:01:02.589Z,8.90
2022-12-26T02:03:48.028Z,7.99
2022-12-26T02:06:15.541Z,8.58
2022-12-26T02:08:44.856Z,8.32
2022-12-26T02:11:29.223Z,8.55
2022-12-26T02:13:57.354Z,8.94
2022-12-26T02:16:25.629Z,9.12
2022-12-26T02:18:52.408Z,8.74
2022-12-26T02:22:01.026Z,9.11
2022-12-26T02:24:55.526Z,8.59
2022-12-26T02:27:54.068Z,8.78
2022-12-26T02:31:03.140Z,9.34
2022-12-26T02:33:52.606Z,9.73
2022-12-26T02:36:57.249Z,9.46
2022-12-26T02:39:58.419Z,9.22
2022-12-26T02:42:33.987Z,9.74
2022-12-26T02:45:46.079Z,9.10
2022-12-26T02:48:29.903Z,8.79
2022-12-26T02:51:43.487Z,8.89
2022-12-26T02:54:53.291Z,8.57
2022-12-26T02:57:49.770Z,8.96
2022-12-26T03:00:37.888Z,8.78
2022-12-26T03:03:48.276Z,8.58
2022-12-26T03:06:40.172Z,8.18
2022-12-26T03:09:38.671Z,8.52
2022-12-26T03:12:57.285Z,8.40
2022-12-26T03:15:29.405Z,9.14
2022-12-26T03:18:02.831Z,9.31
2022-12-26T03:20:38.343Z,8.34
2022-12-26T03:23:11.891Z,8.17
2022-12-26T03:26:12.781Z,8.21
2022-12-26T03:28:41.608Z,8.60
2022-12-26T03:31:12.713Z,8.51
2022-12-26T03:34:05.823Z,8.14
2022-12-26T03:36:50.045Z,7.90
2022-12-26T03:40:24.049Z,8.05
2022-12-26T03:43:57.689Z,7.81
2022-12-26T03:47:21.079Z,8.22
2022-12-26T03:50:14.790Z,7.96
2022-12-26T03:53:28.769Z,7.73
2022-12-26T03:56:38.339Z,7.58
2022-12-26T03:59:30.789Z,7.67
2022-12-26T04:02:23.519Z,7.69
2022-12-26T04:05:14.027Z,8.12
2022-12-26T04:08:18.425Z,7.74
2022-12-26T04:11:16.432Z,7.61
2022-12-26T04:14:24.519Z,7.85
2022-12-26T04:17:21.494Z,8.36
2022-12-26T04:20:09.343Z,8.63
2022-12-26T04:23:28.480Z,8.39
2022-12-26T04:26:33.200Z,8.04
2022-12-26T04:29:18.390Z,7.96
2022-12-26T04:32:19.817Z,7.98
2022-12-26T04:35:18.156Z,7.43
2022-12-26T04:38:04.749Z,8.23
2022-12-26T04:40:59.192Z,8.13
2022-12-26T04:43:51.354Z,7.37
2022-12-26T04:46:22.758Z,6.99
2022-12-26T04:49:10.423Z,6.84
2022-12-26T04:51:37.968Z,6.76
2022-12-26T04:54:06.409Z,7.15
2022-12-26T04:56:33.384Z,7.03
2022-12-26T04:59:00.093Z,7.50
2022-12-26T05:01:45.363Z,7.75
2022-12-26T05:04:36.696Z,7.76
2022-12-26T05:07:30.523Z,7.50
2022-12-26T05:09:57.276Z,6.99
2022-12-26T05:12:23.938Z,7.34
2022-12-26T05:14:50.750Z,7.33
2022-12-26T05:17:36.744Z,7.23
2022-12-26T05:20:22.440Z,7.42
2022-12-26T05:23:07.758Z,7.38
2022-12-26T05:26:01.551Z,7.73
2022-12-26T05:28:43.439Z,8.42
2022-12-26T05:31:16.442Z,7.56
2022-12-26T05:34:02.770Z,7.66
2022-12-26T05:36:45.302Z,7.82
2022-12-26T05:39:12.195Z,7.89
2022-12-26T05:41:40.338Z,7.99
2022-12-26T05:44:08.455Z,7.92
2022-12-26T05:46:36.194Z,7.96
2022-12-26T05:49:05.222Z,7.47
2022-12-26T05:51:33.475Z,7.61
2022-12-26T05:54:00.393Z,8.00
2022-12-26T05:56:27.202Z,7.67
2022-12-26T05:58:56.781Z,7.95
2022-12-26T06:01:24.480Z,7.67
2022-12-26T06:03:55.091Z,7.58
2022-12-26T06:06:23.958Z,7.43
2022-12-26T06:08:53.530Z,7.13
2022-12-26T06:11:21.179Z,7.51
2022-12-26T06:13:47.922Z,7.33
2022-12-26T06:16:18.013Z,7.37
2022-12-26T06:18:45.263Z,7.10
2022-12-26T06:21:16.620Z,7.39
2022-12-26T06:23:43.705Z,7.33
2022-12-26T06:26:12.408Z,7.37
2022-12-26T06:28:41.380Z,7.38
2022-12-26T06:31:16.163Z,7.55
2022-12-26T06:33:43.498Z,7.48
2022-12-26T06:36:14.698Z,7.73
2022-12-26T06:38:42.229Z,7.90
2022-12-26T06:41:12.274Z,8.41
2022-12-26T06:43:39.076Z,8.16
2022-12-26T06:46:08.092Z,8.70
2022-12-26T06:48:39.566Z,8.22
2022-12-26T06:51:16.677Z,8.20
2022-12-26T06:53:43.744Z,8.83
2022-12-26T06:56:12.776Z,8.62
2022-12-26T06:58:39.760Z,8.16
2022-12-26T07:01:08.238Z,8.35
2022-12-26T07:03:35.758Z,8.97
2022-12-26T07:06:05.271Z,9.21
2022-12-26T07:08:32.242Z,9.35
2022-12-26T07:10:59.158Z,8.90
2022-12-26T07:13:25.885Z,9.10
2022-12-26T07:15:52.631Z,8.81
2022-12-26T07:18:19.627Z,8.57
2022-12-26T07:20:48.170Z,8.63
2022-12-26T07:23:15.011Z,8.58
2022-12-26T07:25:41.664Z,8.74
2022-12-26T07:28:08.362Z,9.43
2022-12-26T07:30:35.078Z,9.02
2022-12-26T07:33:01.875Z,9.55
2022-12-26T07:35:29.292Z,9.40
2022-12-26T07:37:56.128Z,9.71
2022-12-26T07:40:22.829Z,9.36
2022-12-26T07:42:54.335Z,8.96
2022-12-26T07:45:21.058Z,8.86
2022-12-26T07:47:47.857Z,8.75
2022-12-26T07:50:14.703Z,8.57
2022-12-26T07:52:41.421Z,8.56
2022-12-26T07:55:08.633Z,8.22
2022-12-26T07:57:50.781Z,8.84
2022-12-26T08:00:19.294Z,8.21
2022-12-26T08:02:51.061Z,7.80
2022-12-26T08:05:18.441Z,7.93
2022-12-26T08:07:48.330Z,7.75
2022-12-26T08:10:17.259Z,7.73
2022-12-26T08:12:44.139Z,8.04
2022-12-26T08:15:12.720Z,8.38
2022-12-26T08:17:39.536Z,7.98
2022-12-26T08:20:07.051Z,8.19
2022-12-26T08:22:33.938Z,8.18
2022-12-26T08:25:00.743Z,9.43
2022-12-26T08:27:27.623Z,8.72
2022-12-26T08:29:54.571Z,8.88
2022-12-26T08:32:21.343Z,8.81
2022-12-26T08:34:48.185Z,8.68
2022-12-26T08:37:14.910Z,8.61
2022-12-26T08:39:42.125Z,8.14
2022-12-26T08:42:08.822Z,7.99
2022-12-26T08:44:35.815Z,8.03
2022-12-26T08:47:02.503Z,8.00
2022-12-26T08:49:29.648Z,7.61
2022-12-26T08:51:56.390Z,7.57
2022-12-26T08:54:23.584Z,7.85
2022-12-26T08:56:50.292Z,7.84
2022-12-26T08:59:17.039Z,8.30
2022-12-26T09:01:43.778Z,8.30
2022-12-26T09:04:10.639Z,7.94
2022-12-26T09:06:39.327Z,8.56
2022-12-26T09:09:12.750Z,7.76
2022-12-26T09:11:41.295Z,7.82
2022-12-26T09:14:08.798Z,7.99
2022-12-26T09:16:50.490Z,8.18
2022-12-26T09:19:19.259Z,8.23
2022-12-26T09:21:47.915Z,7.56
2022-12-26T09:24:18.560Z,7.89
2022-12-26T09:26:46.005Z,7.66
2022-12-26T09:29:17.589Z,7.69
2022-12-26T09:31:45.905Z,7.20
2022-12-26T09:34:12.896Z,7.30
2022-12-26T09:36:39.777Z,7.79
2022-12-26T09:39:07.558Z,7.23
2022-12-26T09:42:30.001Z,7.25
2022-12-26T09:45:17.645Z,7.63
2022-12-26T09:47:59.640Z,7.95
2022-12-26T09:50:42.848Z,7.60
2022-12-26T09:53:27.076Z,8.06
2022-12-26T09:56:14.015Z,7.79
2022-12-26T09:59:00.847Z,7.83
2022-12-26T10:01:34.484Z,7.35
2022-12-26T10:04:09.635Z,7.19
2022-12-26T10:06:45.267Z,7.28
2022-12-26T10:09:55.652Z,7.42
2022-12-26T10:13:04.809Z,7.51
2022-12-26T10:15:44.968Z,7.30
2022-12-26T10:18:59.713Z,7.74
2022-12-26T10:22:15.293Z,7.95
2022-12-26T10:24:43.876Z,8.08
2022-12-26T10:27:17.006Z,8.48
2022-12-26T10:29:55.354Z,8.81
2022-12-26T10:32:43.034Z,9.37
2022-12-26T10:35:38.976Z,8.98
2022-12-26T10:38:29.735Z,8.87
2022-12-26T10:41:05.962Z,8.60
2022-12-26T10:43:34.849Z,8.77
2022-12-26T10:46:23.667Z,8.54
2022-12-26T10:48:50.583Z,8.44
2022-12-26T10:51:17.461Z,8.52
2022-12-26T10:53:50.633Z,8.69
2022-12-26T10:56:18.676Z,8.10
2022-12-26T10:58:48.181Z,8.18
2022-12-26T11:01:38.212Z,8.17
2022-12-26T11:04:21.847Z,7.67
2022-12-26T11:06:54.507Z,7.89
2022-12-26T11:09:45.578Z,8.14
2022-12-26T11:12:40.014Z,8.43
2022-12-26T11:15:26.894Z,7.97
2022-12-26T11:17:54.346Z,7.77
2022-12-26T11:20:23.898Z,7.59
2022-12-26T11:22:52.059Z,7.43
2022-12-26T11:25:27.719Z,7.61
2022-12-26T11:27:58.096Z,7.70
2022-12-26T11:30:37.164Z,7.55
2022-12-26T11:33:17.287Z,7.33
2022-12-26T11:35:57.968Z,7.81
2022-12-26T11:38:44.884Z,7.67
2022-12-26T11:41:33.746Z,7.44
2022-12-26T11:44:14.671Z,7.06
2022-12-26T11:46:45.370Z,7.11
2022-12-26T11:49:23.850Z,7.14
2022-12-26T11:51:57.177Z,7.20
2022-12-26T11:54:47.981Z,7.87
2022-12-26T11:57:31.611Z,7.60
2022-12-26T12:00:22.210Z,8.13
2022-12-26T12:02:49.419Z,8.54
2022-12-26T12:05:28.274Z,8.32
2022-12-26T12:08:26.352Z,8.94
2022-12-26T12:11:17.070Z,9.51
2022-12-26T12:13:50.127Z,9.42
2022-12-26T12:16:59.773Z,8.62
2022-12-26T12:19:54.160Z,8.75
2022-12-26T12:22:41.488Z,8.74
2022-12-26T12:25:43.755Z,8.17
2022-12-26T12:28:57.445Z,8.79
2022-12-26T12:31:53.211Z,8.99
2022-12-26T12:35:11.004Z,8.40
2022-12-26T12:38:02.996Z,9.40
2022-12-26T12:41:14.911Z,9.45
2022-12-26T12:44:21.043Z,9.16
2022-12-26T12:47:30.693Z,9.09
2022-12-26T12:50:39.092Z,8.46
2022-12-26T12:53:23.605Z,8.64
2022-12-26T12:56:06.279Z,8.63
2022-12-26T12:59:02.593Z,8.78
2022-12-26T13:01:45.423Z,8.11
2022-12-26T13:04:24.198Z,8.27
2022-12-26T13:07:30.106Z,8.36
2022-12-26T13:10:06.264Z,8.43
2022-12-26T13:12:38.594Z,8.60
2022-12-26T13:15:07.926Z,8.89
2022-12-26T13:17:44.079Z,8.42
2022-12-26T13:20:34.414Z,8.47
2022-12-26T13:23:28.498Z,8.06
2022-12-26T13:26:16.205Z,7.93
2022-12-26T13:28:59.884Z,8.24
2022-12-26T13:31:36.541Z,8.53
2022-12-26T13:34:08.337Z,8.67
2022-12-26T13:36:42.911Z,7.89
2022-12-26T13:39:30.943Z,7.86
2022-12-26T13:42:38.047Z,7.73
2022-12-26T13:45:35.760Z,6.92
2022-12-26T13:48:26.224Z,7.18
2022-12-26T13:51:02.220Z,7.52
2022-12-26T13:53:33.493Z,7.23
2022-12-26T13:56:25.502Z,7.39
2022-12-26T13:58:58.620Z,7.26
2022-12-26T14:02:06.129Z,7.19
2022-12-26T14:05:00.867Z,7.45
2022-12-26T14:07:41.302Z,7.66
2022-12-26T14:10:28.857Z,7.88
2022-12-26T14:13:13.795Z,8.02
2022-12-26T14:15:51.751Z,7.56
2022-12-26T14:18:49.186Z,7.55
2022-12-26T14:21:43.425Z,7.45
2022-12-26T14:24:13.261Z,7.32
2022-12-26T14:26:52.217Z,7.63
2022-12-26T14:29:44.427Z,7.81
2022-12-26T14:32:35.354Z,8.32
2022-12-26T14:35:23.180Z,8.03
2022-12-26T14:38:03.558Z,8.07
2022-12-26T14:40:37.504Z,8.32
2022-12-26T14:43:13.968Z,9.16
2022-12-26T14:45:45.470Z,8.72
2022-12-26T14:48:15.020Z,8.17
2022-12-26T14:50:52.021Z,7.82
2022-12-26T14:53:24.535Z,8.14
2022-12-26T14:55:54.320Z,8.46
2022-12-26T14:58:43.692Z,7.97
2022-12-26T15:01:13.446Z,8.39
2022-12-26T15:04:03.439Z,9.19
2022-12-26T15:07:38.370Z,9.00
2022-12-26T15:10:49.050Z,8.72
2022-12-26T15:13:21.571Z,8.38
2022-12-26T15:16:15.566Z,8.10
2022-12-26T15:19:20.471Z,8.51
2022-12-26T15:22:03.245Z,7.39
2022-12-26T15:25:25.181Z,7.29
2022-12-26T15:28:15.598Z,7.61
2022-12-26T15:31:46.012Z,7.87
2022-12-26T15:34:37.489Z,7.20
2022-12-26T15:37:19.176Z,6.82
2022-12-26T15:40:16.147Z,6.70
2022-12-26T15:43:22.547Z,7.04
2022-12-26T15:46:29.583Z,6.59
2022-12-26T15:49:35.984Z,6.78
2022-12-26T15:52:45.560Z,6.94
2022-12-26T15:55:36.281Z,7.12
2022-12-26T15:58:39.509Z,6.67
2022-12-26T16:01:11.246Z,6.63
2022-12-26T16:03:52.771Z,6.78
2022-12-26T16:07:01.327Z,6.76
2022-12-26T16:09:49.788Z,6.42
2022-12-26T16:12:31.629Z,6.39
2022-12-26T16:15:01.112Z,6.11
2022-12-26T16:17:28.495Z,6.29
2022-12-26T16:19:55.696Z,5.75
2022-12-26T16:22:44.567Z,5.56
2022-12-26T16:25:22.594Z,5.28
2022-12-26T16:27:57.013Z,4.73
2022-12-26T16:30:31.701Z,4.63
2022-12-26T16:33:00.228Z,4.59
2022-12-26T16:35:37.671Z,4.65
2022-12-26T16:38:07.802Z,4.76
2022-12-26T16:40:43.852Z,5.05
2022-12-26T16:43:34.523Z,5.20
2022-12-26T16:46:05.955Z,5.30
2022-12-26T16:48:35.613Z,4.76
2022-12-26T16:51:24.966Z,4.63
2022-12-26T16:53:51.688Z,4.38
2022-12-26T16:56:33.727Z,4.57
2022-12-26T16:59:17.341Z,4.56
2022-12-26T17:02:32.268Z,4.42
2022-12-26T17:05:07.778Z,4.38
2022-12-26T17:07:44.300Z,4.25
2022-12-26T17:10:36.396Z,4.27
2022-12-26T17:13:08.408Z,3.93
2022-12-26T17:15:46.227Z,3.85
2022-12-26T17:18:50.326Z,4.20
2022-12-26T17:21:24.967Z,4.31
2022-12-26T17:24:26.646Z,4.39
2022-12-26T17:27:18.224Z,4.39
2022-12-26T17:29:53.736Z,4.50
2022-12-26T17:32:44.621Z,4.53
2022-12-26T17:35:19.255Z,4.63
2022-12-26T17:37:50.002Z,4.32
2022-12-26T17:40:16.590Z,4.44
2022-12-26T17:43:04.375Z,4.18
2022-12-26T17:45:31.204Z,4.41
2022-12-26T17:47:58.638Z,4.50
2022-12-26T17:50:40.497Z,4.05
2022-12-26T17:53:38.508Z,4.21
2022-12-26T17:56:17.868Z,4.57
2022-12-26T17:58:44.646Z,4.18
2022-12-26T18:01:16.022Z,3.83
2022-12-26T18:03:45.877Z,3.73
2022-12-26T18:06:16.549Z,3.87
2022-12-26T18:08:44.667Z,3.51
2022-12-26T18:11:13.747Z,3.47
2022-12-26T18:13:41.774Z,3.26
2022-12-26T18:16:18.740Z,3.58
2022-12-26T18:18:48.877Z,3.48
2022-12-26T18:21:16.564Z,3.34
2022-12-26T18:23:43.502Z,3.32
2022-12-26T18:26:25.501Z,3.57
2022-12-26T18:28:53.005Z,3.86
2022-12-26T18:31:20.216Z,3.54
2022-12-26T18:33:47.025Z,3.38
2022-12-26T18:36:16.783Z,3.10
2022-12-26T18:38:44.503Z,2.80
2022-12-26T18:41:19.631Z,2.55
2022-12-26T18:43:47.165Z,2.52
2022-12-26T18:46:23.926Z,2.58
2022-12-26T18:48:53.740Z,2.39
2022-12-26T18:51:21.462Z,2.66
2022-12-26T18:53:48.332Z,2.41
2022-12-26T18:56:19.619Z,2.48
2022-12-26T18:58:52.431Z,2.30
2022-12-26T19:01:22.650Z,2.26
2022-12-26T19:03:49.708Z,2.26
2022-12-26T19:06:23.754Z,2.07
2022-12-26T19:08:51.036Z,2.28
2022-12-26T19:11:17.787Z,2.29
2022-12-26T19:13:44.932Z,2.07
2022-12-26T19:16:11.993Z,1.97
2022-12-26T19:18:39.267Z,2.24
2022-12-26T19:21:12.327Z,2.13
2022-12-26T19:23:39.893Z,2.19
2022-12-26T19:26:16.367Z,2.35
2022-12-26T19:28:58.472Z,2.20
2022-12-26T19:31:31.842Z,2.25
2022-12-26T19:34:13.323Z,2.05
2022-12-26T19:36:40.162Z,1.99
2022-12-26T19:39:06.882Z,2.28
2022-12-26T19:41:33.566Z,2.16
2022-12-26T19:44:01.697Z,1.79
2022-12-26T19:46:28.774Z,1.96
2022-12-26T19:48:55.641Z,1.93
2022-12-26T19:51:23.076Z,2.03
2022-12-26T19:53:50.459Z,2.02
2022-12-26T19:56:21.721Z,2.15
2022-12-26T19:58:54.567Z,1.98
2022-12-26T20:01:27.212Z,1.74
2022-12-26T20:04:06.874Z,2.06
2022-12-26T20:06:36.316Z,1.86
2022-12-26T20:09:10.435Z,1.80
2022-12-26T20:11:43.920Z,1.85
2022-12-26T20:14:17.991Z,1.88
2022-12-26T20:17:04.891Z,1.77
2022-12-26T20:19:32.202Z,1.85
2022-12-26T20:21:58.943Z,1.96
2022-12-26T20:24:25.856Z,1.64
2022-12-26T20:26:52.710Z,1.65
2022-12-26T20:29:19.922Z,1.51
2022-12-26T20:31:46.646Z,1.49
2022-12-26T20:34:13.548Z,2.06
2022-12-26T20:36:41.488Z,1.79
2022-12-26T20:39:18.648Z,1.42
2022-12-26T20:41:46.429Z,1.39
2022-12-26T20:44:14.568Z,1.11
2022-12-26T20:46:42.785Z,1.21
2022-12-26T20:49:10.167Z,1.09
2022-12-26T20:51:40.170Z,1.12
2022-12-26T20:54:09.087Z,0.99
2022-12-26T20:56:37.446Z,1.16
2022-12-26T20:59:06.126Z,1.06
2022-12-26T21:01:33.382Z,0.77
2022-12-26T21:04:00.645Z,0.76
2022-12-26T21:06:35.993Z,0.94
2022-12-26T21:09:04.677Z,1.02
2022-12-26T21:11:36.123Z,1.04
2022-12-26T21:14:07.215Z,1.30
2022-12-26T21:16:46.392Z,1.12
2022-12-26T21:19:15.666Z,1.05
2022-12-26T21:21:47.268Z,1.14
2022-12-26T21:24:21.231Z,0.99
2022-12-26T21:26:49.271Z,1.27
2022-12-26T21:29:29.354Z,1.62
2022-12-26T21:31:57.768Z,1.64
2022-12-26T21:34:28.971Z,2.00
2022-12-26T21:37:15.109Z,1.66
2022-12-26T21:39:42.664Z,1.84
2022-12-26T21:42:10.345Z,1.88
2022-12-26T21:44:37.814Z,1.87
2022-12-26T21:47:07.923Z,1.82
2022-12-26T21:49:35.409Z,2.03
2022-12-26T21:52:02.366Z,2.35
2022-12-26T21:54:49.388Z,2.39
2022-12-26T21:57:17.369Z,2.21
2022-12-26T21:59:57.807Z,2.76
2022-12-26T22:02:47.947Z,2.62
2022-12-26T22:05:16.666Z,2.63
2022-12-26T22:07:44.057Z,2.70
2022-12-26T22:10:34.815Z,2.56
2022-12-26T22:13:02.925Z,2.20
2022-12-26T22:15:48.502Z,1.85
2022-12-26T22:18:15.312Z,1.40
2022-12-26T22:20:44.341Z,1.94
2022-12-26T22:23:11.257Z,1.86
2022-12-26T22:25:38.819Z,1.63
2022-12-26T22:28:05.593Z,1.33
2022-12-26T22:30:32.760Z,1.71
2022-12-26T22:32:59.731Z,1.41
2022-12-26T22:35:28.152Z,1.62
2022-12-26T22:37:55.157Z,1.51
2022-12-26T22:40:21.918Z,1.67
2022-12-26T22:42:48.671Z,1.57
2022-12-26T22:45:15.471Z,1.56
2022-12-26T22:47:42.183Z,1.74
2022-12-26T22:50:13.979Z,1.20
2022-12-26T22:52:40.824Z,1.05
2022-12-26T22:55:08.400Z,1.09
2022-12-26T22:57:35.085Z,0.79
2022-12-26T23:00:10.270Z,1.13
2022-12-26T23:02:37.855Z,1.49
2022-12-26T23:05:05.900Z,1.64
2022-12-26T23:07:33.124Z,1.36
2022-12-26T23:10:00.518Z,0.95
2022-12-26T23:12:45.938Z,1.04
2022-12-26T23:15:23.049Z,0.87
2022-12-26T23:18:21.972Z,0.39
2022-12-26T23:21:07.697Z,0.97
2022-12-26T23:23:35.735Z,1.07
2022-12-26T23:26:02.899Z,0.87
2022-12-26T23:28:48.368Z,0.96
2022-12-26T23:31:15.492Z,0.48
2022-12-26T23:33:42.308Z,0.59
2022-12-26T23:36:09.528Z,0.98
2022-12-26T23:38:36.261Z,0.46
2022-12-26T23:41:03.051Z,0.38
2022-12-26T23:43:30.297Z,0.25
2022-12-26T23:45:57.145Z,0.04
2022-12-26T23:48:23.937Z,-0.04
2022-12-26T23:50:50.758Z,0.10
2022-12-26T23:53:17.460Z,0.18
2022-12-26T23:55:44.300Z,0.33
2022-12-26T23:58:10.991Z,0.63
